Bei Facebook empfehlenBei Twitter postenGoogle plusPinterest

Das Wetter im Erzgebirge am 07.07.2017

Wetter und Klima am 07.07.2017 Holzhau im Erzgebirge (630m ü.NN)
Letzte gemessene Temperatur und Uhrzeit der Messung23:45:00 Uhr13.90 °C
Temperatur (Maximum / Höchstwert) und Uhrzeit der Messung16:00:00 Uhr28.60 °C
Temperatur (Minimum / Tiefstwert) und Uhrzeit der Messung23:45:0013.90 °C
Errechneter Absolutwert der Temperaturschwankungen zwischen Tmin und Tmax des Tages14.70 K
Errechnete Tagesmitteltemperatur19.65938 °C
Gesamt - Niederschlag des Tages (in flüssiger Form)1.03 Liter / m²
Luftdruck (Maximum / Höchstwert) und Zeitpunkt der Messung01:00:00 Uhr1017.00 hPa
Luftdruck (Minimum / Tiefstwert) und Zeitpunkt der Messung19:15:00 Uhr1011.40 hPa
Errechneter Absolutwert der Luftdruckschwankungen des Tages5.60 hPa
Höchste gemessene Windgeschwindigkeit und Uhrzeit der Messung18:45:00 Uhr660.96 km/h
Errechnete Windhäufigkeit in Relation zu den Messwerten des Tages22.91667 %
Niedrigste Windkühle (Windchill) und Zeitpunkt der Messung23:45:00 Uhr13.90 °C
Taupunkt (Maximum / Höchstwert) und Uhrzeit der Messung11:15:00 Uhr17.80 °C
Taupunkt (Minimum / Tiefstwert) und Uhrzeit der Messung23:30:0012.30 °C
Anzahl der automatisch eingelesenen Messwerte 96

Detaillierte Wetter- und Klima- Messwerte für den 07.07.2017 in Holzhau im Erzgebirge (630m ü.NN)
ZeitTemperaturLuftdruckRel. LuftfeuchteWindWindrichtungWindchillTaupunktNiederschlag l/m²
23:45:0013.90 °C1012.50 hPa91.00 %12.50 °C1.03
23:30:0013.90 °C1012.40 hPa90.00 %12.30 °C1.03
23:15:0014.20 °C1012.40 hPa90.00 %12.60 °C1.03
23:00:0014.40 °C1012.60 hPa89.00 %12.60 °C1.03
22:45:0014.40 °C1012.50 hPa89.00 %12.60 °C1.03
22:30:0014.50 °C1012.30 hPa89.00 %12.70 °C1.03
22:15:0014.50 °C1011.90 hPa88.00 %12.50 °C1.03
22:00:0014.60 °C1012.10 hPa88.00 %12.60 °C1.03
21:45:0014.80 °C1012.30 hPa88.00 %12.80 °C1.03
21:30:0014.80 °C1012.30 hPa87.00 %12.70 °C1.03
21:15:0015.00 °C1012.20 hPa87.00 %12.90 °C1.03
21:00:0015.30 °C1011.90 hPa86.00 %13.00 °C1.03
20:45:0015.80 °C1011.70 hPa84.00 %13.10 °C0.52
20:30:0016.40 °C1012.10 hPa81.00 %13.10 °C0.52
20:15:0018.60 °C1012.30 hPa79.00 %28.44 km/hSW19.10 °C14.90 °C0.52
20:00:0019.70 °C1012.00 hPa76.00 %15.40 °C0.52
19:45:0020.30 °C1011.70 hPa71.00 %14.90 °C0.52
19:30:0021.00 °C1011.60 hPa69.00 %15.10 °C0.52
19:15:0021.90 °C1011.40 hPa67.00 %15.50 °C0.52
19:00:0022.30 °C1011.50 hPa69.00 %19.44 km/hNNO23.70 °C16.30 °C0.52
18:45:0021.40 °C1011.40 hPa71.00 %660.96 km/hW19.80 °C15.90 °C0.52
18:30:0020.50 °C1011.60 hPa74.00 %15.70 °C0.52
18:15:0020.40 °C1012.30 hPa71.00 %15.00 °C0.52
18:00:0021.10 °C1011.70 hPa68.00 %15.00 °C0.52
17:45:0022.40 °C1012.00 hPa64.00 %15.30 °C0.52
17:30:0023.90 °C1011.60 hPa57.00 %38.88 km/hWSW25.20 °C14.90 °C0.52
17:15:0025.80 °C1011.70 hPa52.00 %37.44 km/hSW27.50 °C15.20 °C0.52
17:00:0027.30 °C1011.60 hPa49.00 %21.96 km/hWSW29.40 °C15.60 °C0.52
16:45:0028.50 °C1011.50 hPa50.00 %17.10 °C0.52
16:30:0028.20 °C1011.90 hPa49.00 %20.88 km/hNW30.40 °C16.50 °C0.52
16:15:0028.00 °C1011.70 hPa50.00 %16.60 °C0.52
16:00:0028.60 °C1012.00 hPa47.00 %16.20 °C0.52
15:45:0028.60 °C1012.20 hPa48.00 %3.96 km/hWSW28.60 °C16.50 °C0.52
15:30:0028.40 °C1012.20 hPa48.00 %28.44 km/hW30.60 °C16.30 °C0.52
15:15:0028.10 °C1012.10 hPa49.00 %16.40 °C0.52
15:00:0027.50 °C1012.20 hPa52.00 %16.80 °C0.52
14:45:0026.90 °C1012.30 hPa49.00 %9.00 km/hNW26.90 °C15.30 °C0.52
14:30:0027.80 °C1012.40 hPa48.00 %15.80 °C0.52
14:15:0027.00 °C1012.40 hPa51.00 %36.36 km/hW28.90 °C16.00 °C0.52
14:00:0026.90 °C1012.40 hPa51.00 %7.92 km/hNNW26.90 °C15.90 °C0.52
13:45:0027.30 °C1012.60 hPa52.00 %16.60 °C0.52
13:30:0027.60 °C1012.70 hPa51.00 %16.60 °C0.52
13:15:0027.30 °C1012.60 hPa52.00 %3.96 km/hWNW27.30 °C16.60 °C0.52
13:00:0026.80 °C1012.40 hPa51.00 %5.04 km/hWNW26.80 °C15.80 °C0.52
12:45:0026.90 °C1012.20 hPa52.00 %10.44 km/hNW26.90 °C16.20 °C0.52
12:30:0026.50 °C1012.30 hPa54.00 %19.44 km/hW28.50 °C16.40 °C0.52
12:15:0026.20 °C1012.30 hPa55.00 %10.44 km/hNNW26.20 °C16.40 °C0.52
12:00:0025.90 °C1012.40 hPa55.00 %16.20 °C0.52
11:45:0025.70 °C1012.40 hPa57.00 %21.96 km/hNW27.50 °C16.50 °C0.52
11:30:0025.50 °C1012.20 hPa59.00 %16.90 °C0.52
11:15:0025.10 °C1012.40 hPa64.00 %17.80 °C0.52
11:00:0024.10 °C1012.10 hPa65.00 %17.10 °C0.52
10:45:0023.00 °C1012.30 hPa66.00 %16.30 °C0.52
10:30:0022.50 °C1012.20 hPa70.00 %16.80 °C0.52
10:15:0021.30 °C1012.50 hPa74.00 %28.44 km/hSW22.30 °C16.50 °C0.52
10:00:0020.20 °C1012.50 hPa78.00 %30.96 km/hSSO20.90 °C16.20 °C0.52
09:45:0019.40 °C1012.70 hPa79.00 %15.70 °C0.52
09:30:0019.30 °C1012.50 hPa82.00 %16.20 °C0.52
09:15:0018.60 °C1012.50 hPa82.00 %15.50 °C0.52
09:00:0018.30 °C1012.40 hPa84.00 %15.60 °C0.52
08:45:0017.90 °C1012.40 hPa84.00 %15.20 °C0.52
08:30:0018.40 °C1011.90 hPa83.00 %15.50 °C0.52
08:15:0018.70 °C1012.40 hPa85.00 %16.10 °C0.52
08:00:0018.10 °C1012.60 hPa87.00 %15.90 °C0.52
07:45:0017.40 °C1012.90 hPa89.00 %15.60 °C0.52
07:30:0016.80 °C1013.30 hPa90.00 %15.20 °C0.52
07:15:0016.10 °C1013.50 hPa91.00 %14.60 °C0.52
07:00:0015.30 °C1013.80 hPa91.00 %13.80 °C0.52
06:45:0014.90 °C1013.90 hPa91.00 %13.40 °C0.52
06:30:0014.80 °C1014.10 hPa91.00 %13.30 °C0.52
06:15:0014.50 °C1013.90 hPa91.00 %13.00 °C0.52
06:00:0014.30 °C1013.30 hPa91.00 %12.90 °C0.52
05:45:0013.90 °C1013.20 hPa91.00 %12.50 °C0.52
05:30:0013.90 °C1013.30 hPa91.00 %12.50 °C0.52
05:15:0013.90 °C1013.10 hPa91.00 %12.50 °C0.52
05:00:0013.90 °C1013.30 hPa91.00 %12.50 °C0.52
04:45:0014.10 °C1013.40 hPa90.00 %12.50 °C0.52
04:30:0014.40 °C1013.70 hPa90.00 %12.80 °C0.52
04:15:0014.50 °C1014.00 hPa90.00 %12.90 °C0.52
04:00:0014.80 °C1014.00 hPa90.00 %13.20 °C0.52
03:45:0014.90 °C1014.10 hPa90.00 %13.30 °C0.52
03:30:0015.00 °C1014.20 hPa90.00 %13.40 °C0.52
03:15:0015.10 °C1014.20 hPa90.00 %13.50 °C0.52
03:00:0015.10 °C1014.60 hPa90.00 %13.50 °C0.52
02:45:0015.10 °C1014.40 hPa90.00 %13.50 °C0.52
02:30:0015.10 °C1014.50 hPa90.00 %13.50 °C0.52
02:15:0015.20 °C1014.60 hPa89.00 %13.40 °C0.52
02:00:0015.30 °C1014.70 hPa88.00 %13.30 °C0.52
01:45:0015.40 °C1014.70 hPa87.00 %13.20 °C0.52
01:30:0015.80 °C1014.90 hPa86.00 %13.50 °C0.52
01:15:0016.80 °C1015.80 hPa82.00 %15.48 km/hONO16.80 °C13.70 °C0.52
01:00:0016.90 °C1017.00 hPa80.00 %10.44 km/hSW16.90 °C13.40 °C 
00:45:0016.80 °C1015.80 hPa77.00 %12.70 °C 
00:30:0016.50 °C1015.70 hPa79.00 %12.80 °C 
00:15:0016.30 °C1015.50 hPa79.00 %12.70 °C 
00:00:0016.30 °C1015.30 hPa79.00 %12.70 °C 

Permanenter Link zu dieser Seite: Wetter im Erzgebirge am 07.07.2017
Performance-Info: Die Erstellung der Seite / Statistik(en) / Tabelle(n) erforderte 5 Datenbankserver-Abfrage(n) und dauerte 99 Millisekunden. (Dieser Messwert ist von der Gesamt-Auslastung des Servers abhängig.)
Erzgebirge - Wetter | Erzgebirge - Wetter (Mobilgeräte) | Komplette Klimadatenbank